sensor_id;sensor_type;location;lat;lon;timestamp;P1;durP1;ratioP1;P2;durP2;ratioP2
6763;SDS011;47432;0.000;0.000;2022-08-19T00:00:36;31.93;;;15.50;;
6763;SDS011;47432;0.000;0.000;2022-08-19T00:03:05;37.50;;;16.70;;
6763;SDS011;47432;0.000;0.000;2022-08-19T00:05:32;36.67;;;14.63;;
6763;SDS011;47432;0.000;0.000;2022-08-19T00:07:58;42.13;;;17.03;;
6763;SDS011;47432;0.000;0.000;2022-08-19T00:10:24;41.43;;;17.83;;
6763;SDS011;47432;0.000;0.000;2022-08-19T00:12:52;33.87;;;16.30;;
6763;SDS011;47432;0.000;0.000;2022-08-19T00:15:19;36.00;;;16.70;;
6763;SDS011;47432;0.000;0.000;2022-08-19T00:17:45;43.77;;;17.50;;
6763;SDS011;47432;0.000;0.000;2022-08-19T00:20:13;32.40;;;14.73;;
6763;SDS011;47432;0.000;0.000;2022-08-19T00:22:41;26.53;;;14.90;;
6763;SDS011;47432;0.000;0.000;2022-08-19T00:25:07;28.80;;;15.20;;
6763;SDS011;47432;0.000;0.000;2022-08-19T00:27:36;37.37;;;15.47;;
6763;SDS011;47432;0.000;0.000;2022-08-19T00:30:03;41.30;;;17.90;;
6763;SDS011;47432;0.000;0.000;2022-08-19T00:32:29;36.17;;;15.63;;
6763;SDS011;47432;0.000;0.000;2022-08-19T00:34:55;34.47;;;16.30;;
6763;SDS011;47432;0.000;0.000;2022-08-19T00:37:22;45.23;;;17.70;;
6763;SDS011;47432;0.000;0.000;2022-08-19T00:39:51;45.07;;;18.27;;
6763;SDS011;47432;0.000;0.000;2022-08-19T00:42:18;32.90;;;16.83;;
6763;SDS011;47432;0.000;0.000;2022-08-19T00:44:44;33.20;;;15.87;;
6763;SDS011;47432;0.000;0.000;2022-08-19T00:47:10;37.93;;;17.63;;
6763;SDS011;47432;0.000;0.000;2022-08-19T00:49:43;48.67;;;19.10;;
6763;SDS011;47432;0.000;0.000;2022-08-19T00:52:14;37.70;;;17.57;;
6763;SDS011;47432;0.000;0.000;2022-08-19T00:54:44;42.40;;;16.97;;
6763;SDS011;47432;0.000;0.000;2022-08-19T00:57:13;33.83;;;15.20;;
6763;SDS011;47432;0.000;0.000;2022-08-19T00:59:40;31.70;;;16.13;;
6763;SDS011;47432;0.000;0.000;2022-08-19T01:02:07;39.20;;;18.77;;
6763;SDS011;47432;0.000;0.000;2022-08-19T01:04:33;41.07;;;17.20;;
6763;SDS011;47432;0.000;0.000;2022-08-19T01:06:59;37.97;;;17.60;;
6763;SDS011;47432;0.000;0.000;2022-08-19T01:09:27;30.47;;;15.40;;
6763;SDS011;47432;0.000;0.000;2022-08-19T01:11:53;32.60;;;16.70;;
6763;SDS011;47432;0.000;0.000;2022-08-19T01:14:19;33.30;;;16.33;;
6763;SDS011;47432;0.000;0.000;2022-08-19T01:16:45;41.67;;;17.40;;
6763;SDS011;47432;0.000;0.000;2022-08-19T01:19:15;32.97;;;16.27;;
6763;SDS011;47432;0.000;0.000;2022-08-19T01:21:49;34.90;;;16.70;;
6763;SDS011;47432;0.000;0.000;2022-08-19T01:24:18;28.93;;;15.30;;
6763;SDS011;47432;0.000;0.000;2022-08-19T01:26:44;34.43;;;17.83;;
6763;SDS011;47432;0.000;0.000;2022-08-19T01:29:11;45.00;;;17.53;;
6763;SDS011;47432;0.000;0.000;2022-08-19T01:31:37;40.00;;;17.60;;
6763;SDS011;47432;0.000;0.000;2022-08-19T01:34:04;29.17;;;15.10;;
6763;SDS011;47432;0.000;0.000;2022-08-19T01:36:42;37.13;;;17.17;;
6763;SDS011;47432;0.000;0.000;2022-08-19T01:39:13;34.03;;;16.93;;
6763;SDS011;47432;0.000;0.000;2022-08-19T01:41:40;29.73;;;15.33;;
6763;SDS011;47432;0.000;0.000;2022-08-19T01:44:06;33.90;;;16.00;;
6763;SDS011;47432;0.000;0.000;2022-08-19T01:46:35;41.23;;;19.00;;
6763;SDS011;47432;0.000;0.000;2022-08-19T01:49:02;38.40;;;18.90;;
6763;SDS011;47432;0.000;0.000;2022-08-19T01:51:28;34.40;;;17.03;;
6763;SDS011;47432;0.000;0.000;2022-08-19T01:53:55;32.73;;;17.13;;
6763;SDS011;47432;0.000;0.000;2022-08-19T01:56:21;32.20;;;16.47;;
6763;SDS011;47432;0.000;0.000;2022-08-19T01:58:58;35.20;;;18.37;;
6763;SDS011;47432;0.000;0.000;2022-08-19T02:01:29;34.63;;;18.20;;
6763;SDS011;47432;0.000;0.000;2022-08-19T02:03:59;37.93;;;18.40;;
6763;SDS011;47432;0.000;0.000;2022-08-19T02:06:25;31.80;;;17.10;;
6763;SDS011;47432;0.000;0.000;2022-08-19T02:08:52;31.47;;;17.43;;
6763;SDS011;47432;0.000;0.000;2022-08-19T02:11:19;35.33;;;17.00;;
6763;SDS011;47432;0.000;0.000;2022-08-19T02:13:47;34.73;;;17.30;;
6763;SDS011;47432;0.000;0.000;2022-08-19T02:16:15;45.80;;;18.43;;
6763;SDS011;47432;0.000;0.000;2022-08-19T02:18:41;40.37;;;18.33;;
6763;SDS011;47432;0.000;0.000;2022-08-19T02:21:07;36.70;;;20.60;;
6763;SDS011;47432;0.000;0.000;2022-08-19T02:23:33;38.73;;;18.67;;
6763;SDS011;47432;0.000;0.000;2022-08-19T02:26:01;31.17;;;16.60;;
6763;SDS011;47432;0.000;0.000;2022-08-19T02:28:29;51.90;;;21.73;;
6763;SDS011;47432;0.000;0.000;2022-08-19T02:30:57;33.57;;;17.97;;
6763;SDS011;47432;0.000;0.000;2022-08-19T02:33:25;37.33;;;19.23;;
6763;SDS011;47432;0.000;0.000;2022-08-19T02:35:54;39.10;;;19.50;;
6763;SDS011;47432;0.000;0.000;2022-08-19T02:38:20;35.50;;;18.07;;
6763;SDS011;47432;0.000;0.000;2022-08-19T02:40:52;41.93;;;19.23;;
6763;SDS011;47432;0.000;0.000;2022-08-19T02:43:19;44.23;;;20.03;;
6763;SDS011;47432;0.000;0.000;2022-08-19T02:45:45;38.77;;;19.93;;
6763;SDS011;47432;0.000;0.000;2022-08-19T02:48:13;52.03;;;21.40;;
6763;SDS011;47432;0.000;0.000;2022-08-19T02:50:42;39.00;;;19.13;;
6763;SDS011;47432;0.000;0.000;2022-08-19T02:53:08;43.33;;;19.70;;
6763;SDS011;47432;0.000;0.000;2022-08-19T02:55:34;34.80;;;18.50;;
6763;SDS011;47432;0.000;0.000;2022-08-19T02:58:00;39.93;;;20.03;;
6763;SDS011;47432;0.000;0.000;2022-08-19T03:00:26;39.50;;;22.17;;
6763;SDS011;47432;0.000;0.000;2022-08-19T03:02:53;39.40;;;20.53;;
6763;SDS011;47432;0.000;0.000;2022-08-19T03:05:19;52.77;;;21.80;;
6763;SDS011;47432;0.000;0.000;2022-08-19T03:07:45;38.23;;;20.27;;
6763;SDS011;47432;0.000;0.000;2022-08-19T03:10:11;39.50;;;20.27;;
6763;SDS011;47432;0.000;0.000;2022-08-19T03:12:38;40.67;;;21.50;;
6763;SDS011;47432;0.000;0.000;2022-08-19T03:15:05;45.80;;;22.30;;
6763;SDS011;47432;0.000;0.000;2022-08-19T03:17:34;51.40;;;25.33;;
6763;SDS011;47432;0.000;0.000;2022-08-19T03:20:00;43.20;;;23.70;;
6763;SDS011;47432;0.000;0.000;2022-08-19T03:22:28;37.30;;;22.00;;
6763;SDS011;47432;0.000;0.000;2022-08-19T03:24:55;44.10;;;23.40;;
6763;SDS011;47432;0.000;0.000;2022-08-19T03:27:23;41.67;;;22.37;;
6763;SDS011;47432;0.000;0.000;2022-08-19T03:29:49;45.63;;;23.70;;
6763;SDS011;47432;0.000;0.000;2022-08-19T03:32:16;39.33;;;22.47;;
6763;SDS011;47432;0.000;0.000;2022-08-19T03:34:44;40.40;;;22.40;;
6763;SDS011;47432;0.000;0.000;2022-08-19T03:37:11;50.00;;;24.30;;
6763;SDS011;47432;0.000;0.000;2022-08-19T03:39:37;47.63;;;25.30;;
6763;SDS011;47432;0.000;0.000;2022-08-19T03:42:04;37.33;;;22.30;;
6763;SDS011;47432;0.000;0.000;2022-08-19T03:44:30;48.83;;;23.70;;
6763;SDS011;47432;0.000;0.000;2022-08-19T03:46:58;49.00;;;26.73;;
6763;SDS011;47432;0.000;0.000;2022-08-19T03:49:25;42.97;;;23.63;;
6763;SDS011;47432;0.000;0.000;2022-08-19T03:51:52;46.07;;;24.10;;
6763;SDS011;47432;0.000;0.000;2022-08-19T03:54:19;41.27;;;23.50;;
6763;SDS011;47432;0.000;0.000;2022-08-19T03:56:49;42.03;;;22.90;;
6763;SDS011;47432;0.000;0.000;2022-08-19T03:59:17;46.90;;;24.77;;
6763;SDS011;47432;0.000;0.000;2022-08-19T04:01:43;45.13;;;24.20;;
6763;SDS011;47432;0.000;0.000;2022-08-19T04:04:09;40.93;;;23.00;;
6763;SDS011;47432;0.000;0.000;2022-08-19T04:06:36;44.30;;;25.97;;
6763;SDS011;47432;0.000;0.000;2022-08-19T04:09:03;50.93;;;25.30;;
6763;SDS011;47432;0.000;0.000;2022-08-19T04:11:37;44.20;;;25.83;;
6763;SDS011;47432;0.000;0.000;2022-08-19T04:14:08;47.90;;;25.23;;
6763;SDS011;47432;0.000;0.000;2022-08-19T04:16:34;41.80;;;24.20;;
6763;SDS011;47432;0.000;0.000;2022-08-19T04:19:01;41.67;;;24.13;;
6763;SDS011;47432;0.000;0.000;2022-08-19T04:21:27;49.60;;;24.30;;
6763;SDS011;47432;0.000;0.000;2022-08-19T04:23:53;44.97;;;24.63;;
6763;SDS011;47432;0.000;0.000;2022-08-19T04:26:23;40.50;;;24.27;;
6763;SDS011;47432;0.000;0.000;2022-08-19T04:28:51;49.03;;;26.37;;
6763;SDS011;47432;0.000;0.000;2022-08-19T04:31:30;47.03;;;25.03;;
6763;SDS011;47432;0.000;0.000;2022-08-19T04:34:03;43.40;;;24.50;;
6763;SDS011;47432;0.000;0.000;2022-08-19T04:36:30;39.00;;;24.30;;
6763;SDS011;47432;0.000;0.000;2022-08-19T04:39:04;44.30;;;24.80;;
6763;SDS011;47432;0.000;0.000;2022-08-19T04:41:30;53.00;;;27.30;;
6763;SDS011;47432;0.000;0.000;2022-08-19T04:44:15;53.67;;;26.10;;
6763;SDS011;47432;0.000;0.000;2022-08-19T04:46:44;44.77;;;25.97;;
6763;SDS011;47432;0.000;0.000;2022-08-19T04:49:12;46.83;;;26.57;;
6763;SDS011;47432;0.000;0.000;2022-08-19T04:51:39;40.40;;;23.80;;
6763;SDS011;47432;0.000;0.000;2022-08-19T04:54:06;45.50;;;25.63;;
6763;SDS011;47432;0.000;0.000;2022-08-19T04:56:32;43.30;;;23.73;;
6763;SDS011;47432;0.000;0.000;2022-08-19T04:58:58;45.10;;;24.40;;
6763;SDS011;47432;0.000;0.000;2022-08-19T05:01:28;45.00;;;25.83;;
6763;SDS011;47432;0.000;0.000;2022-08-19T05:03:55;45.63;;;22.67;;
6763;SDS011;47432;0.000;0.000;2022-08-19T05:06:22;46.20;;;25.93;;
6763;SDS011;47432;0.000;0.000;2022-08-19T05:08:48;46.83;;;25.23;;
6763;SDS011;47432;0.000;0.000;2022-08-19T05:13:41;55.87;;;26.87;;
6763;SDS011;47432;0.000;0.000;2022-08-19T05:16:12;42.20;;;25.03;;
6763;SDS011;47432;0.000;0.000;2022-08-19T05:18:39;66.17;;;27.10;;
6763;SDS011;47432;0.000;0.000;2022-08-19T05:21:24;48.67;;;26.20;;
6763;SDS011;47432;0.000;0.000;2022-08-19T05:24:09;37.23;;;23.93;;
6763;SDS011;47432;0.000;0.000;2022-08-19T05:26:39;51.33;;;26.57;;
6763;SDS011;47432;0.000;0.000;2022-08-19T05:29:08;46.83;;;26.33;;
6763;SDS011;47432;0.000;0.000;2022-08-19T05:31:35;47.77;;;25.70;;
6763;SDS011;47432;0.000;0.000;2022-08-19T05:34:02;44.60;;;25.50;;
6763;SDS011;47432;0.000;0.000;2022-08-19T05:36:33;43.90;;;22.23;;
6763;SDS011;47432;0.000;0.000;2022-08-19T05:38:59;44.50;;;23.63;;
6763;SDS011;47432;0.000;0.000;2022-08-19T05:41:25;43.50;;;25.10;;
6763;SDS011;47432;0.000;0.000;2022-08-19T05:43:55;47.63;;;24.97;;
6763;SDS011;47432;0.000;0.000;2022-08-19T05:46:21;37.43;;;22.70;;
6763;SDS011;47432;0.000;0.000;2022-08-19T05:48:48;57.20;;;25.27;;
6763;SDS011;47432;0.000;0.000;2022-08-19T05:51:14;47.33;;;26.40;;
6763;SDS011;47432;0.000;0.000;2022-08-19T05:53:41;41.67;;;23.90;;
6763;SDS011;47432;0.000;0.000;2022-08-19T05:56:16;43.07;;;24.33;;
6763;SDS011;47432;0.000;0.000;2022-08-19T05:58:44;48.30;;;24.93;;
6763;SDS011;47432;0.000;0.000;2022-08-19T06:01:11;49.43;;;26.50;;
6763;SDS011;47432;0.000;0.000;2022-08-19T06:03:40;45.67;;;24.60;;
6763;SDS011;47432;0.000;0.000;2022-08-19T06:06:07;48.73;;;26.73;;
6763;SDS011;47432;0.000;0.000;2022-08-19T06:08:34;46.33;;;25.43;;
6763;SDS011;47432;0.000;0.000;2022-08-19T06:11:17;40.70;;;22.73;;
6763;SDS011;47432;0.000;0.000;2022-08-19T06:13:44;45.03;;;24.60;;
6763;SDS011;47432;0.000;0.000;2022-08-19T06:16:12;41.53;;;23.77;;
6763;SDS011;47432;0.000;0.000;2022-08-19T06:18:44;49.73;;;25.77;;
6763;SDS011;47432;0.000;0.000;2022-08-19T06:21:13;45.57;;;24.63;;
6763;SDS011;47432;0.000;0.000;2022-08-19T06:23:39;49.50;;;25.93;;
6763;SDS011;47432;0.000;0.000;2022-08-19T06:26:11;42.57;;;22.60;;
6763;SDS011;47432;0.000;0.000;2022-08-19T06:28:39;49.13;;;22.00;;
6763;SDS011;47432;0.000;0.000;2022-08-19T06:31:08;47.93;;;25.03;;
6763;SDS011;47432;0.000;0.000;2022-08-19T06:33:35;49.23;;;26.50;;
6763;SDS011;47432;0.000;0.000;2022-08-19T06:36:02;40.70;;;22.80;;
6763;SDS011;47432;0.000;0.000;2022-08-19T06:38:28;44.70;;;25.00;;
6763;SDS011;47432;0.000;0.000;2022-08-19T06:41:01;46.93;;;26.37;;
6763;SDS011;47432;0.000;0.000;2022-08-19T06:43:27;57.27;;;27.80;;
6763;SDS011;47432;0.000;0.000;2022-08-19T06:45:53;41.17;;;23.77;;
6763;SDS011;47432;0.000;0.000;2022-08-19T06:48:21;54.93;;;25.90;;
6763;SDS011;47432;0.000;0.000;2022-08-19T06:50:47;48.57;;;26.13;;
6763;SDS011;47432;0.000;0.000;2022-08-19T06:53:14;46.13;;;25.13;;
6763;SDS011;47432;0.000;0.000;2022-08-19T06:55:42;46.40;;;23.70;;
6763;SDS011;47432;0.000;0.000;2022-08-19T06:58:11;51.47;;;26.00;;
6763;SDS011;47432;0.000;0.000;2022-08-19T07:00:39;42.27;;;23.87;;
6763;SDS011;47432;0.000;0.000;2022-08-19T07:03:07;43.77;;;25.03;;
6763;SDS011;47432;0.000;0.000;2022-08-19T07:05:37;45.20;;;25.43;;
6763;SDS011;47432;0.000;0.000;2022-08-19T07:08:04;50.90;;;25.80;;
6763;SDS011;47432;0.000;0.000;2022-08-19T07:10:32;41.40;;;24.70;;
6763;SDS011;47432;0.000;0.000;2022-08-19T07:13:02;44.80;;;25.80;;
6763;SDS011;47432;0.000;0.000;2022-08-19T07:15:28;47.80;;;24.57;;
6763;SDS011;47432;0.000;0.000;2022-08-19T07:17:55;50.47;;;24.83;;
6763;SDS011;47432;0.000;0.000;2022-08-19T07:20:21;47.80;;;25.47;;
6763;SDS011;47432;0.000;0.000;2022-08-19T07:22:50;41.00;;;22.33;;
6763;SDS011;47432;0.000;0.000;2022-08-19T07:25:16;50.23;;;25.40;;
6763;SDS011;47432;0.000;0.000;2022-08-19T07:27:43;43.20;;;24.27;;
6763;SDS011;47432;0.000;0.000;2022-08-19T07:30:09;46.20;;;21.43;;
6763;SDS011;47432;0.000;0.000;2022-08-19T07:32:36;43.87;;;21.37;;
6763;SDS011;47432;0.000;0.000;2022-08-19T07:35:05;46.03;;;23.33;;
6763;SDS011;47432;0.000;0.000;2022-08-19T07:37:31;46.63;;;23.13;;
6763;SDS011;47432;0.000;0.000;2022-08-19T07:39:57;44.87;;;24.47;;
6763;SDS011;47432;0.000;0.000;2022-08-19T07:42:23;42.50;;;22.93;;
6763;SDS011;47432;0.000;0.000;2022-08-19T07:44:49;44.10;;;24.60;;
6763;SDS011;47432;0.000;0.000;2022-08-19T07:47:18;47.80;;;23.77;;
6763;SDS011;47432;0.000;0.000;2022-08-19T07:49:46;42.17;;;22.93;;
6763;SDS011;47432;0.000;0.000;2022-08-19T07:52:13;43.23;;;23.63;;
6763;SDS011;47432;0.000;0.000;2022-08-19T07:54:41;44.67;;;22.93;;
6763;SDS011;47432;0.000;0.000;2022-08-19T07:57:08;46.57;;;23.50;;
6763;SDS011;47432;0.000;0.000;2022-08-19T07:59:34;41.57;;;22.50;;
6763;SDS011;47432;0.000;0.000;2022-08-19T08:02:00;45.97;;;23.40;;
6763;SDS011;47432;0.000;0.000;2022-08-19T08:04:27;43.90;;;22.80;;
6763;SDS011;47432;0.000;0.000;2022-08-19T08:07:12;53.97;;;23.67;;
6763;SDS011;47432;0.000;0.000;2022-08-19T08:09:57;42.77;;;23.87;;
6763;SDS011;47432;0.000;0.000;2022-08-19T08:12:24;44.13;;;24.37;;
6763;SDS011;47432;0.000;0.000;2022-08-19T08:14:55;41.67;;;22.30;;
6763;SDS011;47432;0.000;0.000;2022-08-19T08:17:23;39.03;;;22.50;;
6763;SDS011;47432;0.000;0.000;2022-08-19T08:19:49;45.43;;;23.43;;
6763;SDS011;47432;0.000;0.000;2022-08-19T08:22:16;44.03;;;22.80;;
6763;SDS011;47432;0.000;0.000;2022-08-19T08:25:13;40.27;;;21.00;;
6763;SDS011;47432;0.000;0.000;2022-08-19T08:27:40;43.93;;;23.03;;
6763;SDS011;47432;0.000;0.000;2022-08-19T08:30:11;44.63;;;23.60;;
6763;SDS011;47432;0.000;0.000;2022-08-19T08:32:39;45.00;;;22.30;;
6763;SDS011;47432;0.000;0.000;2022-08-19T08:35:06;45.57;;;24.70;;
6763;SDS011;47432;0.000;0.000;2022-08-19T08:37:33;45.90;;;24.40;;
6763;SDS011;47432;0.000;0.000;2022-08-19T08:39:59;45.30;;;26.07;;
6763;SDS011;47432;0.000;0.000;2022-08-19T08:42:28;52.07;;;25.20;;
6763;SDS011;47432;0.000;0.000;2022-08-19T08:44:58;44.77;;;24.27;;
6763;SDS011;47432;0.000;0.000;2022-08-19T08:47:25;41.53;;;23.20;;
6763;SDS011;47432;0.000;0.000;2022-08-19T08:52:27;43.43;;;23.80;;
6763;SDS011;47432;0.000;0.000;2022-08-19T08:54:57;42.87;;;22.70;;
6763;SDS011;47432;0.000;0.000;2022-08-19T09:00:14;41.37;;;23.00;;
6763;SDS011;47432;0.000;0.000;2022-08-19T09:02:41;42.90;;;24.90;;
6763;SDS011;47432;0.000;0.000;2022-08-19T09:05:08;45.17;;;23.07;;
6763;SDS011;47432;0.000;0.000;2022-08-19T09:10:37;43.40;;;23.30;;
6763;SDS011;47432;0.000;0.000;2022-08-19T09:13:07;42.57;;;21.47;;
6763;SDS011;47432;0.000;0.000;2022-08-19T09:15:40;41.70;;;20.77;;
6763;SDS011;47432;0.000;0.000;2022-08-19T09:18:09;46.67;;;23.37;;
6763;SDS011;47432;0.000;0.000;2022-08-19T09:20:35;46.37;;;22.07;;
6763;SDS011;47432;0.000;0.000;2022-08-19T09:23:01;42.73;;;22.33;;
6763;SDS011;47432;0.000;0.000;2022-08-19T09:25:30;43.20;;;22.20;;
6763;SDS011;47432;0.000;0.000;2022-08-19T09:27:59;42.87;;;23.90;;
6763;SDS011;47432;0.000;0.000;2022-08-19T09:30:28;43.03;;;22.30;;
6763;SDS011;47432;0.000;0.000;2022-08-19T09:32:54;38.67;;;21.50;;
6763;SDS011;47432;0.000;0.000;2022-08-19T09:35:21;43.20;;;23.00;;
6763;SDS011;47432;0.000;0.000;2022-08-19T09:37:48;41.87;;;23.50;;
6763;SDS011;47432;0.000;0.000;2022-08-19T09:40:16;38.63;;;19.17;;
6763;SDS011;47432;0.000;0.000;2022-08-19T09:42:43;39.13;;;21.30;;
6763;SDS011;47432;0.000;0.000;2022-08-19T09:45:12;43.63;;;23.13;;
6763;SDS011;47432;0.000;0.000;2022-08-19T09:47:38;36.27;;;14.60;;
6763;SDS011;47432;0.000;0.000;2022-08-19T09:50:05;44.27;;;22.03;;
6763;SDS011;47432;0.000;0.000;2022-08-19T09:52:31;39.80;;;20.63;;
6763;SDS011;47432;0.000;0.000;2022-08-19T09:54:57;43.70;;;21.10;;
6763;SDS011;47432;0.000;0.000;2022-08-19T09:57:23;35.33;;;19.50;;
6763;SDS011;47432;0.000;0.000;2022-08-19T09:59:49;36.07;;;18.23;;
6763;SDS011;47432;0.000;0.000;2022-08-19T10:02:15;37.03;;;18.97;;
6763;SDS011;47432;0.000;0.000;2022-08-19T10:04:42;37.33;;;17.53;;
6763;SDS011;47432;0.000;0.000;2022-08-19T10:07:29;33.40;;;17.40;;
6763;SDS011;47432;0.000;0.000;2022-08-19T10:09:55;32.17;;;14.53;;
6763;SDS011;47432;0.000;0.000;2022-08-19T10:12:21;35.40;;;15.40;;
6763;SDS011;47432;0.000;0.000;2022-08-19T10:14:47;34.77;;;15.83;;
6763;SDS011;47432;0.000;0.000;2022-08-19T10:17:18;36.63;;;19.00;;
6763;SDS011;47432;0.000;0.000;2022-08-19T10:19:44;47.53;;;19.70;;
6763;SDS011;47432;0.000;0.000;2022-08-19T10:22:10;32.93;;;17.47;;
6763;SDS011;47432;0.000;0.000;2022-08-19T10:24:40;37.77;;;17.07;;
6763;SDS011;47432;0.000;0.000;2022-08-19T10:27:06;34.20;;;18.33;;
6763;SDS011;47432;0.000;0.000;2022-08-19T10:29:32;35.27;;;17.80;;
6763;SDS011;47432;0.000;0.000;2022-08-19T10:32:00;37.17;;;18.37;;
6763;SDS011;47432;0.000;0.000;2022-08-19T10:34:28;31.90;;;16.53;;
6763;SDS011;47432;0.000;0.000;2022-08-19T10:36:58;29.10;;;15.93;;
6763;SDS011;47432;0.000;0.000;2022-08-19T10:39:27;33.83;;;17.60;;
6763;SDS011;47432;0.000;0.000;2022-08-19T10:41:54;32.20;;;15.90;;
6763;SDS011;47432;0.000;0.000;2022-08-19T10:44:21;34.07;;;17.07;;
6763;SDS011;47432;0.000;0.000;2022-08-19T10:46:48;34.53;;;17.00;;
6763;SDS011;47432;0.000;0.000;2022-08-19T10:49:14;34.20;;;16.53;;
6763;SDS011;47432;0.000;0.000;2022-08-19T10:51:40;31.20;;;14.00;;
6763;SDS011;47432;0.000;0.000;2022-08-19T10:54:25;34.97;;;16.53;;
6763;SDS011;47432;0.000;0.000;2022-08-19T10:57:11;31.77;;;15.60;;
6763;SDS011;47432;0.000;0.000;2022-08-19T10:59:37;33.13;;;15.40;;
6763;SDS011;47432;0.000;0.000;2022-08-19T11:02:07;32.80;;;14.53;;
6763;SDS011;47432;0.000;0.000;2022-08-19T11:04:37;31.27;;;13.30;;
6763;SDS011;47432;0.000;0.000;2022-08-19T11:07:04;28.10;;;13.80;;
6763;SDS011;47432;0.000;0.000;2022-08-19T11:09:30;26.07;;;13.17;;
6763;SDS011;47432;0.000;0.000;2022-08-19T11:11:56;29.57;;;13.90;;
6763;SDS011;47432;0.000;0.000;2022-08-19T11:14:25;30.97;;;13.77;;
6763;SDS011;47432;0.000;0.000;2022-08-19T11:16:53;30.30;;;15.60;;
6763;SDS011;47432;0.000;0.000;2022-08-19T11:19:20;31.60;;;13.77;;
6763;SDS011;47432;0.000;0.000;2022-08-19T11:21:48;29.50;;;13.27;;
6763;SDS011;47432;0.000;0.000;2022-08-19T11:24:18;29.90;;;13.47;;
6763;SDS011;47432;0.000;0.000;2022-08-19T11:26:48;31.10;;;13.90;;
6763;SDS011;47432;0.000;0.000;2022-08-19T11:29:15;27.50;;;13.13;;
6763;SDS011;47432;0.000;0.000;2022-08-19T11:31:44;26.47;;;12.63;;
6763;SDS011;47432;0.000;0.000;2022-08-19T11:34:13;25.33;;;12.40;;
6763;SDS011;47432;0.000;0.000;2022-08-19T11:36:42;27.93;;;13.40;;
6763;SDS011;47432;0.000;0.000;2022-08-19T11:39:09;26.57;;;13.03;;
6763;SDS011;47432;0.000;0.000;2022-08-19T11:41:40;30.63;;;13.60;;
6763;SDS011;47432;0.000;0.000;2022-08-19T11:44:06;25.90;;;13.60;;
6763;SDS011;47432;0.000;0.000;2022-08-19T11:46:34;28.30;;;13.30;;
6763;SDS011;47432;0.000;0.000;2022-08-19T11:49:00;25.17;;;12.63;;
6763;SDS011;47432;0.000;0.000;2022-08-19T11:51:28;29.77;;;12.47;;
6763;SDS011;47432;0.000;0.000;2022-08-19T11:53:55;25.60;;;11.60;;
6763;SDS011;47432;0.000;0.000;2022-08-19T11:56:22;32.00;;;13.17;;
6763;SDS011;47432;0.000;0.000;2022-08-19T11:58:48;31.00;;;13.43;;
6763;SDS011;47432;0.000;0.000;2022-08-19T12:01:15;21.63;;;11.23;;
6763;SDS011;47432;0.000;0.000;2022-08-19T12:03:43;26.57;;;12.20;;
6763;SDS011;47432;0.000;0.000;2022-08-19T12:06:13;28.30;;;12.50;;
6763;SDS011;47432;0.000;0.000;2022-08-19T12:08:42;28.13;;;12.53;;
6763;SDS011;47432;0.000;0.000;2022-08-19T12:11:09;27.20;;;12.13;;
6763;SDS011;47432;0.000;0.000;2022-08-19T12:13:37;34.60;;;12.77;;
6763;SDS011;47432;0.000;0.000;2022-08-19T12:16:07;26.07;;;12.80;;
6763;SDS011;47432;0.000;0.000;2022-08-19T12:18:37;28.40;;;13.60;;
6763;SDS011;47432;0.000;0.000;2022-08-19T12:21:03;30.20;;;12.90;;
6763;SDS011;47432;0.000;0.000;2022-08-19T12:23:29;26.40;;;11.80;;
6763;SDS011;47432;0.000;0.000;2022-08-19T12:25:55;22.63;;;11.70;;
6763;SDS011;47432;0.000;0.000;2022-08-19T12:28:22;29.40;;;12.80;;
6763;SDS011;47432;0.000;0.000;2022-08-19T12:30:51;23.80;;;11.73;;
6763;SDS011;47432;0.000;0.000;2022-08-19T12:33:17;26.07;;;12.20;;
6763;SDS011;47432;0.000;0.000;2022-08-19T12:35:44;27.73;;;12.90;;
6763;SDS011;47432;0.000;0.000;2022-08-19T12:38:11;25.53;;;11.80;;
6763;SDS011;47432;0.000;0.000;2022-08-19T12:40:37;34.30;;;14.53;;
6763;SDS011;47432;0.000;0.000;2022-08-19T12:43:05;24.23;;;11.37;;
6763;SDS011;47432;0.000;0.000;2022-08-19T12:45:31;24.77;;;11.23;;
6763;SDS011;47432;0.000;0.000;2022-08-19T12:47:57;22.87;;;11.33;;
6763;SDS011;47432;0.000;0.000;2022-08-19T12:50:23;24.30;;;12.87;;
6763;SDS011;47432;0.000;0.000;2022-08-19T12:52:49;25.93;;;12.77;;
6763;SDS011;47432;0.000;0.000;2022-08-19T12:55:15;24.93;;;12.30;;
6763;SDS011;47432;0.000;0.000;2022-08-19T12:57:43;28.00;;;13.17;;
6763;SDS011;47432;0.000;0.000;2022-08-19T13:00:14;26.17;;;12.33;;
6763;SDS011;47432;0.000;0.000;2022-08-19T13:02:41;23.93;;;12.63;;
6763;SDS011;47432;0.000;0.000;2022-08-19T13:05:10;24.67;;;12.20;;
6763;SDS011;47432;0.000;0.000;2022-08-19T13:07:37;27.90;;;13.50;;
6763;SDS011;47432;0.000;0.000;2022-08-19T13:10:04;26.33;;;13.40;;
6763;SDS011;47432;0.000;0.000;2022-08-19T13:12:33;27.70;;;14.67;;
6763;SDS011;47432;0.000;0.000;2022-08-19T13:15:02;32.43;;;16.07;;
6763;SDS011;47432;0.000;0.000;2022-08-19T13:17:28;36.77;;;18.30;;
6763;SDS011;47432;0.000;0.000;2022-08-19T13:19:54;34.30;;;19.17;;
6763;SDS011;47432;0.000;0.000;2022-08-19T13:22:22;32.63;;;18.10;;
6763;SDS011;47432;0.000;0.000;2022-08-19T13:24:51;34.40;;;17.67;;
6763;SDS011;47432;0.000;0.000;2022-08-19T13:27:17;36.20;;;20.93;;
6763;SDS011;47432;0.000;0.000;2022-08-19T13:29:43;35.90;;;20.43;;
6763;SDS011;47432;0.000;0.000;2022-08-19T13:32:28;40.23;;;22.97;;
6763;SDS011;47432;0.000;0.000;2022-08-19T13:35:14;39.57;;;22.83;;
6763;SDS011;47432;0.000;0.000;2022-08-19T13:37:42;39.07;;;21.97;;
6763;SDS011;47432;0.000;0.000;2022-08-19T13:40:10;34.60;;;21.73;;
6763;SDS011;47432;0.000;0.000;2022-08-19T13:42:38;41.07;;;24.30;;
6763;SDS011;47432;0.000;0.000;2022-08-19T13:45:04;36.30;;;22.70;;
6763;SDS011;47432;0.000;0.000;2022-08-19T13:47:31;40.73;;;23.90;;
6763;SDS011;47432;0.000;0.000;2022-08-19T13:49:59;42.90;;;24.43;;
6763;SDS011;47432;0.000;0.000;2022-08-19T13:52:27;40.00;;;23.67;;
6763;SDS011;47432;0.000;0.000;2022-08-19T13:54:55;44.10;;;25.37;;
6763;SDS011;47432;0.000;0.000;2022-08-19T13:57:24;43.40;;;25.67;;
6763;SDS011;47432;0.000;0.000;2022-08-19T13:59:49;43.87;;;26.20;;
6763;SDS011;47432;0.000;0.000;2022-08-19T14:02:15;39.67;;;25.83;;
6763;SDS011;47432;0.000;0.000;2022-08-19T14:04:41;46.70;;;27.93;;
6763;SDS011;47432;0.000;0.000;2022-08-19T14:07:07;56.03;;;29.73;;
6763;SDS011;47432;0.000;0.000;2022-08-19T14:09:35;51.33;;;29.50;;
6763;SDS011;47432;0.000;0.000;2022-08-19T14:12:00;46.80;;;27.77;;
6763;SDS011;47432;0.000;0.000;2022-08-19T14:14:29;44.23;;;28.83;;
6763;SDS011;47432;0.000;0.000;2022-08-19T14:16:55;51.23;;;27.93;;
6763;SDS011;47432;0.000;0.000;2022-08-19T14:19:20;44.93;;;29.07;;
6763;SDS011;47432;0.000;0.000;2022-08-19T14:21:46;49.53;;;28.83;;
6763;SDS011;47432;0.000;0.000;2022-08-19T14:24:13;42.87;;;25.77;;
6763;SDS011;47432;0.000;0.000;2022-08-19T14:26:39;40.40;;;25.57;;
6763;SDS011;47432;0.000;0.000;2022-08-19T14:29:05;41.27;;;26.13;;
6763;SDS011;47432;0.000;0.000;2022-08-19T14:31:31;36.47;;;23.53;;
6763;SDS011;47432;0.000;0.000;2022-08-19T14:33:56;42.23;;;25.33;;
6763;SDS011;47432;0.000;0.000;2022-08-19T14:36:22;41.87;;;24.03;;
6763;SDS011;47432;0.000;0.000;2022-08-19T14:38:48;38.53;;;23.23;;
6763;SDS011;47432;0.000;0.000;2022-08-19T14:41:19;37.77;;;22.50;;
6763;SDS011;47432;0.000;0.000;2022-08-19T14:43:47;43.17;;;23.70;;
6763;SDS011;47432;0.000;0.000;2022-08-19T14:46:20;36.80;;;22.90;;
6763;SDS011;47432;0.000;0.000;2022-08-19T14:48:50;35.00;;;21.90;;
6763;SDS011;47432;0.000;0.000;2022-08-19T14:51:16;37.30;;;22.30;;
6763;SDS011;47432;0.000;0.000;2022-08-19T14:53:42;36.03;;;20.90;;
6763;SDS011;47432;0.000;0.000;2022-08-19T14:56:14;34.17;;;21.10;;
6763;SDS011;47432;0.000;0.000;2022-08-19T14:58:41;37.77;;;21.23;;
6763;SDS011;47432;0.000;0.000;2022-08-19T15:01:08;37.70;;;21.80;;
6763;SDS011;47432;0.000;0.000;2022-08-19T15:03:34;33.77;;;19.50;;